Somerset, Wisconsin
Current Conditions -  °F | °C
As of 7:35 PM on Tuesday 21 Oct 2014 (Local Time) from KRNH Reporting Station
Clear Clear  
Wind Chill: 46°   Ceiling: Unl
Heat Index: 46°   Visibility: 10mi
Dew Point: 36°   Wind: 3mph
Humidity: 69%   Direction: 120°ESE
Pressure: 30.18"   Gusts: NA
Location:  45.12°N, 92.67°W
Report Text: KRNH 220035Z AUTO 12003KT 10SM CLR 08/02 A3018 RMK AO2 T00750022
Loading
Personal Weather Stations






























Interactive Weather Map
Tropical Storm Tracking
New forecast layout! Learn more

10-Day Weather Forecast

Advertisements
Track Severe Weather on mobile